createdAt,value
2018-09-15T00:01:45.556Z,4.90
2018-09-15T00:04:14.050Z,5.80
2018-09-15T00:06:42.537Z,5.60
2018-09-15T00:09:11.341Z,5.77
2018-09-15T00:11:39.860Z,5.33
2018-09-15T00:14:08.493Z,4.83
2018-09-15T00:16:37.032Z,5.23
2018-09-15T00:19:05.577Z,5.00
2018-09-15T00:21:34.110Z,5.43
2018-09-15T00:24:02.641Z,4.87
2018-09-15T00:26:31.147Z,5.10
2018-09-15T00:28:59.674Z,4.80
2018-09-15T00:31:28.206Z,5.20
2018-09-15T00:33:56.764Z,4.93
2018-09-15T00:36:25.296Z,4.53
2018-09-15T00:38:54.751Z,4.70
2018-09-15T00:41:23.297Z,5.13
2018-09-15T00:43:51.792Z,4.93
2018-09-15T00:46:21.363Z,5.33
2018-09-15T00:48:50.523Z,5.23
2018-09-15T00:51:19.017Z,5.20
2018-09-15T00:53:48.030Z,4.97
2018-09-15T00:56:17.240Z,5.30
2018-09-15T00:58:47.024Z,4.90
2018-09-15T01:01:16.274Z,5.03
2018-09-15T01:03:45.245Z,4.23
2018-09-15T01:06:14.023Z,4.50
2018-09-15T01:08:42.597Z,4.20
2018-09-15T01:11:11.273Z,6.00
2018-09-15T01:13:40.104Z,4.60
2018-09-15T01:16:09.352Z,4.70
2018-09-15T01:18:41.605Z,4.40
2018-09-15T01:21:10.173Z,4.77
2018-09-15T01:23:39.351Z,4.27
2018-09-15T01:26:12.784Z,5.00
2018-09-15T01:28:41.734Z,4.33
2018-09-15T01:31:11.829Z,4.30
2018-09-15T01:33:40.400Z,4.00
2018-09-15T01:36:09.116Z,4.50
2018-09-15T01:38:38.382Z,4.50
2018-09-15T01:41:06.936Z,4.43
2018-09-15T01:43:36.221Z,4.50
2018-09-15T01:46:04.808Z,4.10
2018-09-15T01:48:33.455Z,4.27
2018-09-15T01:51:01.935Z,4.07
2018-09-15T01:53:31.196Z,4.23
2018-09-15T01:55:59.904Z,4.50
2018-09-15T01:58:28.406Z,4.57
2018-09-15T02:00:57.614Z,4.33
2018-09-15T02:03:27.967Z,4.50
2018-09-15T02:05:56.597Z,4.60
2018-09-15T02:08:25.186Z,4.40
2018-09-15T02:10:53.824Z,4.93
2018-09-15T02:13:23.327Z,4.50
2018-09-15T02:15:52.029Z,4.90
2018-09-15T02:18:20.630Z,4.23
2018-09-15T02:20:49.110Z,4.83
2018-09-15T02:23:17.616Z,4.47
2018-09-15T02:25:46.058Z,4.80
2018-09-15T02:28:14.523Z,4.73
2018-09-15T02:30:43.008Z,4.53
2018-09-15T02:33:12.321Z,5.37
2018-09-15T02:35:40.840Z,4.90
2018-09-15T02:38:09.317Z,5.17
2018-09-15T02:40:38.186Z,6.27
2018-09-15T02:43:06.842Z,4.97
2018-09-15T02:45:35.385Z,5.33
2018-09-15T02:48:03.850Z,5.70
2018-09-15T02:50:32.361Z,5.60
2018-09-15T02:53:00.892Z,5.27
2018-09-15T02:55:29.343Z,5.37
2018-09-15T02:57:57.804Z,5.20
2018-09-15T03:00:26.305Z,5.53
2018-09-15T03:02:54.783Z,4.97
2018-09-15T03:05:23.260Z,5.20
2018-09-15T03:07:51.722Z,4.67
2018-09-15T03:10:20.164Z,5.60
2018-09-15T03:12:48.708Z,5.80
2018-09-15T03:15:17.184Z,4.87
2018-09-15T03:17:45.682Z,5.40
2018-09-15T03:20:14.122Z,5.70
2018-09-15T03:22:42.613Z,5.43
2018-09-15T03:25:11.213Z,5.13
2018-09-15T03:27:39.766Z,5.57
2018-09-15T03:30:08.251Z,5.93
2018-09-15T03:32:36.751Z,5.60
2018-09-15T03:35:05.645Z,4.70
2018-09-15T03:37:34.431Z,5.20
2018-09-15T03:40:02.878Z,4.77
2018-09-15T03:42:31.439Z,5.50
2018-09-15T03:45:00.064Z,5.30
2018-09-15T03:47:28.653Z,5.27
2018-09-15T03:49:57.266Z,5.60
2018-09-15T03:52:25.861Z,5.03
2018-09-15T03:54:54.375Z,5.40
2018-09-15T03:57:23.042Z,5.20
2018-09-15T03:59:51.637Z,5.50
2018-09-15T04:02:20.191Z,5.20
2018-09-15T04:04:48.715Z,5.70
2018-09-15T04:07:17.363Z,6.33
2018-09-15T04:09:45.860Z,5.90
2018-09-15T04:12:14.456Z,5.87
2018-09-15T04:14:43.151Z,5.67
2018-09-15T04:17:11.614Z,5.57
2018-09-15T04:19:40.227Z,5.97
2018-09-15T04:22:08.698Z,5.43
2018-09-15T04:24:37.214Z,6.03
2018-09-15T04:27:05.714Z,5.63
2018-09-15T04:29:34.291Z,6.77
2018-09-15T04:32:02.888Z,5.70
2018-09-15T04:34:31.459Z,5.67
2018-09-15T04:37:00.074Z,5.80
2018-09-15T04:39:28.626Z,5.40
2018-09-15T04:41:57.103Z,5.37
2018-09-15T04:44:25.687Z,5.40
2018-09-15T04:46:54.188Z,5.47
2018-09-15T04:49:22.741Z,5.40
2018-09-15T04:51:51.629Z,5.37
2018-09-15T04:54:20.127Z,5.37
2018-09-15T04:56:48.602Z,5.20
2018-09-15T04:59:17.135Z,6.30
2018-09-15T05:01:45.673Z,5.23
2018-09-15T05:04:14.112Z,5.63
2018-09-15T05:06:42.667Z,5.57
2018-09-15T05:09:12.595Z,5.60
2018-09-15T05:11:41.354Z,5.37
2018-09-15T05:14:09.924Z,5.87
2018-09-15T05:16:38.476Z,5.93
2018-09-15T05:19:06.938Z,5.40
2018-09-15T05:21:35.444Z,5.77
2018-09-15T05:24:03.891Z,5.70
2018-09-15T05:26:32.357Z,5.33
2018-09-15T05:29:00.862Z,6.20
2018-09-15T05:31:29.383Z,5.87
2018-09-15T05:33:57.941Z,6.17
2018-09-15T05:36:26.480Z,5.97
2018-09-15T05:38:54.962Z,6.13
2018-09-15T05:41:23.473Z,5.20
2018-09-15T05:43:51.936Z,5.43
2018-09-15T05:46:20.411Z,5.93
2018-09-15T05:48:48.944Z,5.27
2018-09-15T05:51:17.452Z,6.13
2018-09-15T05:53:45.927Z,5.40
2018-09-15T05:56:15.586Z,5.47
2018-09-15T05:58:44.156Z,5.53
2018-09-15T06:01:12.656Z,5.33
2018-09-15T06:03:41.136Z,5.50
2018-09-15T06:06:09.602Z,5.33
2018-09-15T06:08:38.090Z,5.47
2018-09-15T06:11:06.701Z,5.87
2018-09-15T06:13:35.248Z,5.73
2018-09-15T06:16:04.338Z,5.80
2018-09-15T06:18:32.829Z,5.50
2018-09-15T06:21:04.295Z,5.37
2018-09-15T06:23:33.072Z,5.13
2018-09-15T06:26:02.578Z,5.80
2018-09-15T06:28:31.154Z,5.70
2018-09-15T06:30:59.671Z,5.50
2018-09-15T06:33:28.173Z,4.87
2018-09-15T06:35:56.696Z,5.40
2018-09-15T06:38:25.267Z,5.40
2018-09-15T06:40:53.734Z,5.30
2018-09-15T06:43:22.199Z,4.93
2018-09-15T06:45:50.954Z,4.83
2018-09-15T06:48:19.558Z,5.33
2018-09-15T06:50:48.046Z,4.97
2018-09-15T06:53:17.172Z,5.50
2018-09-15T06:55:46.142Z,5.70
2018-09-15T06:58:15.259Z,5.30
2018-09-15T07:00:43.869Z,4.50
2018-09-15T07:03:12.315Z,5.60
2018-09-15T07:05:40.850Z,5.27
2018-09-15T07:08:09.387Z,4.87
2018-09-15T07:10:37.842Z,4.50
2018-09-15T07:13:06.698Z,5.30
2018-09-15T07:15:35.191Z,4.90
2018-09-15T07:18:03.692Z,4.63
2018-09-15T07:20:32.260Z,4.93
2018-09-15T07:23:00.782Z,5.13
2018-09-15T07:25:29.277Z,5.10
2018-09-15T07:27:57.859Z,4.40
2018-09-15T07:30:27.004Z,5.03
2018-09-15T07:32:55.972Z,4.70
2018-09-15T07:35:24.859Z,4.60
2018-09-15T07:37:53.381Z,4.43
2018-09-15T07:40:21.929Z,4.60
2018-09-15T07:42:50.718Z,4.60
2018-09-15T07:45:20.326Z,4.87
2018-09-15T07:47:49.311Z,5.23
2018-09-15T07:50:17.788Z,4.33
2018-09-15T07:52:46.443Z,4.17
2018-09-15T07:55:15.262Z,3.70
2018-09-15T07:57:43.835Z,4.20
2018-09-15T08:00:12.360Z,4.27
2018-09-15T08:02:41.192Z,3.97
2018-09-15T08:05:09.747Z,4.90
2018-09-15T08:07:38.214Z,4.27
2018-09-15T08:10:06.773Z,4.20
2018-09-15T08:12:35.274Z,4.50
2018-09-15T08:15:03.888Z,4.50
2018-09-15T08:17:32.338Z,4.83
2018-09-15T08:20:00.827Z,4.57
2018-09-15T08:22:29.347Z,4.50
2018-09-15T08:24:57.837Z,3.97
2018-09-15T08:27:26.332Z,4.37
2018-09-15T08:29:54.839Z,4.80
2018-09-15T08:32:23.986Z,4.00
2018-09-15T08:34:52.595Z,3.87
2018-09-15T08:37:21.105Z,3.73
2018-09-15T08:39:49.719Z,3.93
2018-09-15T08:42:18.199Z,3.47
2018-09-15T08:44:46.708Z,3.90
2018-09-15T08:47:15.219Z,3.93
2018-09-15T08:49:44.204Z,3.27
2018-09-15T08:52:12.783Z,3.63
2018-09-15T08:54:41.243Z,3.23
2018-09-15T08:57:09.756Z,3.27
2018-09-15T08:59:38.775Z,3.83
2018-09-15T09:02:11.672Z,3.20
2018-09-15T09:04:40.254Z,3.50
2018-09-15T09:07:08.890Z,3.57
2018-09-15T09:09:37.355Z,3.13
2018-09-15T09:12:05.871Z,3.43
2018-09-15T09:14:34.427Z,3.40
2018-09-15T09:17:06.919Z,4.20
2018-09-15T09:19:35.499Z,3.43
2018-09-15T09:22:03.994Z,3.10
2018-09-15T09:24:32.600Z,3.37
2018-09-15T09:27:01.187Z,3.63
2018-09-15T09:29:29.735Z,3.63
2018-09-15T09:31:58.222Z,3.33
2018-09-15T09:34:27.713Z,4.00
2018-09-15T09:36:56.439Z,3.50
2018-09-15T09:39:25.054Z,3.33
2018-09-15T09:41:53.629Z,3.40
2018-09-15T09:44:22.098Z,3.20
2018-09-15T09:46:50.569Z,3.00
2018-09-15T09:49:19.050Z,3.20
2018-09-15T09:51:47.557Z,3.97
2018-09-15T09:54:16.081Z,3.70
2018-09-15T09:56:44.567Z,3.43
2018-09-15T09:59:13.110Z,3.30
2018-09-15T10:01:46.942Z,3.67
2018-09-15T10:04:15.428Z,2.83
2018-09-15T10:06:43.954Z,3.23
2018-09-15T10:09:12.544Z,3.13
2018-09-15T10:11:42.161Z,2.87
2018-09-15T10:14:10.985Z,2.87
2018-09-15T10:16:39.558Z,2.80
2018-09-15T10:19:08.811Z,2.80
2018-09-15T10:21:37.396Z,3.40
2018-09-15T10:24:05.926Z,2.67
2018-09-15T10:26:34.559Z,3.10
2018-09-15T10:29:03.060Z,3.40
2018-09-15T10:31:31.594Z,2.83
2018-09-15T10:34:00.294Z,3.30
2018-09-15T10:36:28.786Z,3.33
2018-09-15T10:38:57.716Z,3.00
2018-09-15T10:41:26.217Z,3.60
2018-09-15T10:43:54.781Z,3.20
2018-09-15T10:46:23.325Z,2.67
2018-09-15T10:48:51.914Z,3.10
2018-09-15T10:51:20.481Z,3.13
2018-09-15T10:53:49.169Z,2.80
2018-09-15T10:56:18.063Z,2.43
2018-09-15T10:58:46.828Z,2.60
2018-09-15T11:01:15.336Z,2.70
2018-09-15T11:03:43.878Z,2.90
2018-09-15T11:06:12.394Z,2.50
2018-09-15T11:08:41.181Z,2.70
2018-09-15T11:11:09.729Z,2.30
2018-09-15T11:13:38.440Z,2.47
2018-09-15T11:16:06.952Z,2.50
2018-09-15T11:18:35.470Z,2.70
2018-09-15T11:21:04.017Z,3.13
2018-09-15T11:23:33.789Z,2.27
2018-09-15T11:26:02.336Z,2.33
2018-09-15T11:28:32.263Z,2.00
2018-09-15T11:31:00.838Z,2.50
2018-09-15T11:33:30.760Z,2.20
2018-09-15T11:35:59.278Z,2.50
2018-09-15T11:38:27.757Z,2.47
2018-09-15T11:40:57.184Z,1.90
2018-09-15T11:43:25.701Z,2.40
2018-09-15T11:45:54.216Z,2.50
2018-09-15T11:48:22.722Z,2.23
2018-09-15T11:50:51.211Z,1.93
2018-09-15T11:53:19.921Z,2.67
2018-09-15T11:55:48.413Z,2.70
2018-09-15T11:58:17.039Z,2.27
2018-09-15T12:00:51.628Z,2.20
2018-09-15T12:03:20.911Z,2.30
2018-09-15T12:05:49.490Z,2.23
2018-09-15T12:08:18.055Z,1.67
2018-09-15T12:10:47.605Z,1.50
2018-09-15T12:13:16.155Z,1.53
2018-09-15T12:15:45.017Z,1.27
2018-09-15T12:18:13.962Z,1.53
2018-09-15T12:20:42.926Z,1.23
2018-09-15T12:23:11.402Z,1.17
2018-09-15T12:25:40.492Z,1.23
2018-09-15T12:28:09.235Z,1.50
2018-09-15T12:30:37.737Z,1.90
2018-09-15T12:33:06.352Z,1.47
2018-09-15T12:35:35.454Z,1.80
2018-09-15T12:38:04.866Z,1.60
2018-09-15T12:40:33.352Z,1.40
2018-09-15T12:43:02.142Z,1.43
2018-09-15T12:45:30.621Z,1.40
2018-09-15T12:47:59.101Z,1.60
2018-09-15T12:50:27.697Z,1.40
2018-09-15T12:52:56.209Z,1.63
2018-09-15T12:55:24.718Z,1.57
2018-09-15T12:57:53.259Z,1.83
2018-09-15T13:00:21.744Z,1.73
2018-09-15T13:02:50.459Z,2.07
2018-09-15T13:05:19.127Z,2.13
2018-09-15T13:07:47.579Z,2.17
2018-09-15T13:10:16.136Z,1.83
2018-09-15T13:12:44.903Z,2.30
2018-09-15T13:15:13.628Z,1.70
2018-09-15T13:17:42.238Z,2.07
2018-09-15T13:20:10.813Z,2.17
2018-09-15T13:22:39.392Z,1.97
2018-09-15T13:25:07.907Z,2.07
2018-09-15T13:27:36.646Z,1.63
2018-09-15T13:30:05.306Z,2.17
2018-09-15T13:32:33.758Z,2.20
2018-09-15T13:35:02.917Z,2.08
2018-09-15T13:37:31.440Z,2.40
2018-09-15T13:40:00.142Z,1.90
2018-09-15T13:42:28.704Z,1.63
2018-09-15T13:44:57.170Z,1.50
2018-09-15T13:47:25.587Z,1.93
2018-09-15T13:49:54.159Z,1.47
2018-09-15T13:52:22.592Z,1.80
2018-09-15T13:54:51.046Z,1.80
2018-09-15T13:57:19.486Z,1.67
2018-09-15T13:59:47.947Z,1.80
2018-09-15T14:02:16.410Z,1.50
2018-09-15T14:05:09.954Z,1.77
2018-09-15T14:07:38.504Z,1.43
2018-09-15T14:10:07.485Z,1.73
2018-09-15T14:12:35.928Z,1.63
2018-09-15T14:15:05.881Z,1.70
2018-09-15T14:17:35.763Z,1.80
2018-09-15T14:20:04.941Z,1.60
2018-09-15T14:22:33.509Z,2.00
2018-09-15T14:25:02.002Z,1.73
2018-09-15T14:27:30.438Z,2.00
2018-09-15T14:29:59.330Z,1.47
2018-09-15T14:32:27.863Z,1.80
2018-09-15T14:34:56.758Z,2.00
2018-09-15T14:37:25.435Z,1.70
2018-09-15T14:39:56.276Z,1.53
2018-09-15T14:42:25.840Z,2.13
2018-09-15T14:44:54.347Z,1.37
2018-09-15T14:47:23.209Z,1.67
2018-09-15T14:49:51.714Z,1.50
2018-09-15T14:52:20.212Z,1.77
2018-09-15T14:54:48.662Z,1.77
2018-09-15T14:57:17.134Z,1.90
2018-09-15T14:59:45.845Z,2.77
2018-09-15T15:02:14.303Z,3.43
2018-09-15T15:04:42.847Z,2.67
2018-09-15T15:07:11.301Z,2.00
2018-09-15T15:09:39.818Z,2.87
2018-09-15T15:12:08.278Z,2.30
2018-09-15T15:14:36.805Z,3.87
2018-09-15T15:17:05.342Z,1.93
2018-09-15T15:19:33.858Z,2.80
2018-09-15T15:22:02.360Z,2.97
2018-09-15T15:24:31.747Z,2.47
2018-09-15T15:27:00.193Z,3.13
2018-09-15T15:29:28.896Z,5.43
2018-09-15T15:31:57.359Z,5.43
2018-09-15T15:34:25.855Z,6.77
2018-09-15T15:36:54.894Z,4.90
2018-09-15T15:39:23.365Z,2.73
2018-09-15T15:41:51.927Z,1.80
2018-09-15T15:44:20.418Z,1.90
2018-09-15T15:46:49.065Z,1.83
2018-09-15T15:49:17.618Z,3.50
2018-09-15T15:51:46.081Z,2.63
2018-09-15T15:54:14.835Z,2.03
2018-09-15T15:56:43.315Z,1.80
2018-09-15T15:59:11.880Z,2.03
2018-09-15T16:01:40.428Z,2.60
2018-09-15T16:04:08.936Z,2.27
2018-09-15T16:06:37.602Z,2.13
2018-09-15T16:09:08.108Z,2.37
2018-09-15T16:11:37.887Z,5.23
2018-09-15T16:14:06.495Z,2.17
2018-09-15T16:16:35.012Z,1.70
2018-09-15T16:19:03.653Z,1.73
2018-09-15T16:21:32.231Z,2.20
2018-09-15T16:24:00.930Z,1.90
2018-09-15T16:26:29.409Z,2.10
2018-09-15T16:28:57.983Z,1.80
2018-09-15T16:31:26.478Z,1.80
2018-09-15T16:33:55.033Z,2.00
2018-09-15T16:36:23.538Z,1.70
2018-09-15T16:38:52.442Z,2.37
2018-09-15T16:41:20.949Z,3.10
2018-09-15T16:43:49.390Z,1.90
2018-09-15T16:46:17.871Z,1.90
2018-09-15T16:48:46.414Z,1.80
2018-09-15T16:51:14.915Z,1.80
2018-09-15T16:53:43.787Z,1.63
2018-09-15T16:56:12.291Z,1.20
2018-09-15T16:58:40.790Z,1.73
2018-09-15T17:01:09.539Z,2.07
2018-09-15T17:03:38.157Z,2.00
2018-09-15T17:06:06.704Z,1.70
2018-09-15T17:08:35.296Z,1.40
2018-09-15T17:11:03.802Z,1.70
2018-09-15T17:13:32.422Z,1.73
2018-09-15T17:16:00.993Z,1.90
2018-09-15T17:18:29.444Z,2.20
2018-09-15T17:20:58.031Z,2.10
2018-09-15T17:23:26.532Z,2.43
2018-09-15T17:25:55.201Z,2.17
2018-09-15T17:28:23.790Z,2.20
2018-09-15T17:30:52.483Z,1.90
2018-09-15T17:33:21.107Z,1.97
2018-09-15T17:35:49.637Z,2.17
2018-09-15T17:38:18.118Z,1.80
2018-09-15T17:40:46.631Z,1.80
2018-09-15T17:43:15.786Z,2.03
2018-09-15T17:45:44.299Z,1.90
2018-09-15T17:48:12.797Z,2.10
2018-09-15T17:50:42.170Z,2.17
2018-09-15T17:53:10.932Z,1.80
2018-09-15T17:55:39.460Z,1.93
2018-09-15T17:58:08.241Z,1.83
2018-09-15T18:00:36.698Z,2.47
2018-09-15T18:03:05.224Z,2.23
2018-09-15T18:05:33.722Z,2.63
2018-09-15T18:08:02.338Z,2.17
2018-09-15T18:10:30.913Z,2.03
2018-09-15T18:12:59.460Z,1.90
2018-09-15T18:15:28.048Z,1.93
2018-09-15T18:17:56.628Z,1.93
2018-09-15T18:20:25.164Z,2.37
2018-09-15T18:22:53.903Z,2.80
2018-09-15T18:25:22.371Z,2.60
2018-09-15T18:27:50.872Z,2.80
2018-09-15T18:30:19.359Z,2.80
2018-09-15T18:32:47.893Z,2.30
2018-09-15T18:35:16.568Z,2.73
2018-09-15T18:37:45.255Z,2.50
2018-09-15T18:40:13.929Z,3.27
2018-09-15T18:42:42.437Z,3.07
2018-09-15T18:45:10.915Z,2.40
2018-09-15T18:47:39.407Z,2.80
2018-09-15T18:50:07.938Z,3.20
2018-09-15T18:52:36.537Z,2.53
2018-09-15T18:55:05.192Z,3.07
2018-09-15T18:57:33.673Z,2.83
2018-09-15T19:00:02.205Z,2.60
2018-09-15T19:02:31.409Z,2.50
2018-09-15T19:04:59.923Z,2.50
2018-09-15T19:07:28.393Z,2.50
2018-09-15T19:09:57.224Z,2.30
2018-09-15T19:12:25.731Z,3.57
2018-09-15T19:14:54.332Z,2.50
2018-09-15T19:17:22.794Z,2.00
2018-09-15T19:19:51.489Z,2.43
2018-09-15T19:22:20.047Z,3.23
2018-09-15T19:24:48.787Z,2.50
2018-09-15T19:27:17.499Z,2.67
2018-09-15T19:29:46.767Z,2.50
2018-09-15T19:32:15.353Z,2.77
2018-09-15T19:34:43.854Z,2.57
2018-09-15T19:37:12.370Z,2.83
2018-09-15T19:39:40.879Z,2.60
2018-09-15T19:42:09.422Z,3.03
2018-09-15T19:44:37.894Z,2.93
2018-09-15T19:47:06.387Z,2.83
2018-09-15T19:49:34.855Z,2.73
2018-09-15T19:52:03.374Z,3.03
2018-09-15T19:54:31.903Z,2.80
2018-09-15T19:57:00.422Z,2.63
2018-09-15T19:59:28.874Z,2.60
2018-09-15T20:01:57.412Z,2.90
2018-09-15T20:04:25.892Z,3.10
2018-09-15T20:06:54.374Z,2.90
2018-09-15T20:09:22.886Z,2.90
2018-09-15T20:11:51.413Z,3.00
2018-09-15T20:14:19.962Z,2.53
2018-09-15T20:16:47.389Z,2.97
2018-09-15T20:19:14.783Z,2.70
2018-09-15T20:21:42.131Z,2.30
2018-09-15T20:24:10.635Z,2.83
2018-09-15T20:26:39.159Z,3.10
2018-09-15T20:29:07.688Z,2.37
2018-09-15T20:31:36.172Z,2.90
2018-09-15T20:34:04.687Z,2.87
2018-09-15T20:36:33.181Z,2.50
2018-09-15T20:39:01.707Z,2.90
2018-09-15T20:41:30.180Z,3.57
2018-09-15T20:43:59.461Z,2.63
2018-09-15T20:46:27.930Z,2.70
2018-09-15T20:48:56.473Z,2.60
2018-09-15T20:51:24.949Z,2.67
2018-09-15T20:53:53.491Z,2.87
2018-09-15T20:56:22.000Z,2.90
2018-09-15T20:58:50.464Z,3.07
2018-09-15T21:01:18.937Z,3.00
2018-09-15T21:03:47.392Z,2.80
2018-09-15T21:06:15.870Z,2.50
2018-09-15T21:08:44.357Z,2.97
2018-09-15T21:11:12.856Z,2.47
2018-09-15T21:13:41.379Z,3.23
2018-09-15T21:16:09.884Z,3.10
2018-09-15T21:18:38.365Z,2.70
2018-09-15T21:21:07.051Z,2.60
2018-09-15T21:23:35.515Z,2.60
2018-09-15T21:26:04.000Z,2.60
2018-09-15T21:28:32.494Z,3.03
2018-09-15T21:31:01.014Z,3.10
2018-09-15T21:33:29.733Z,2.93
2018-09-15T21:35:58.252Z,3.37
2018-09-15T21:38:26.739Z,2.73
2018-09-15T21:40:55.222Z,2.93
2018-09-15T21:43:23.687Z,2.70
2018-09-15T21:45:52.180Z,3.13
2018-09-15T21:48:20.665Z,2.63
2018-09-15T21:50:49.215Z,3.43
2018-09-15T21:53:17.694Z,2.80
2018-09-15T21:55:46.190Z,2.60
2018-09-15T21:58:14.675Z,2.57
2018-09-15T22:00:43.255Z,2.87
2018-09-15T22:03:11.754Z,2.90
2018-09-15T22:05:40.278Z,3.00
2018-09-15T22:08:08.766Z,2.97
2018-09-15T22:10:37.219Z,2.67
2018-09-15T22:13:05.745Z,2.63
2018-09-15T22:15:34.251Z,2.57
2018-09-15T22:18:02.757Z,2.77
2018-09-15T22:20:31.228Z,2.93
2018-09-15T22:22:59.802Z,2.60
2018-09-15T22:25:28.433Z,2.70
2018-09-15T22:27:56.995Z,3.10
2018-09-15T22:30:25.605Z,2.50
2018-09-15T22:32:54.269Z,3.40
2018-09-15T22:35:22.728Z,3.10
2018-09-15T22:37:51.312Z,3.20
2018-09-15T22:40:19.946Z,2.63
2018-09-15T22:42:48.466Z,2.40
2018-09-15T22:45:17.025Z,3.50
2018-09-15T22:47:46.093Z,3.30
2018-09-15T22:50:16.051Z,3.00
2018-09-15T22:52:45.924Z,2.67
2018-09-15T22:55:15.540Z,2.70
2018-09-15T22:57:49.178Z,2.77
2018-09-15T23:00:18.892Z,2.77
2018-09-15T23:02:48.332Z,3.00
2018-09-15T23:05:16.990Z,3.17
2018-09-15T23:07:45.558Z,2.73
2018-09-15T23:10:14.267Z,2.80
2018-09-15T23:12:43.688Z,3.23
2018-09-15T23:15:12.884Z,3.00
2018-09-15T23:17:41.769Z,2.63
2018-09-15T23:20:11.372Z,2.77
2018-09-15T23:22:40.184Z,2.30
2018-09-15T23:25:08.793Z,2.57
2018-09-15T23:27:37.671Z,2.90
2018-09-15T23:30:06.648Z,2.40
2018-09-15T23:32:35.378Z,2.67
2018-09-15T23:35:03.883Z,2.60
2018-09-15T23:37:32.361Z,3.27
2018-09-15T23:40:01.227Z,2.97
2018-09-15T23:42:34.409Z,2.60
2018-09-15T23:45:02.994Z,2.80
2018-09-15T23:47:31.489Z,2.83
2018-09-15T23:50:00.035Z,2.97
2018-09-15T23:52:28.601Z,2.50
2018-09-15T23:54:57.091Z,2.90
2018-09-15T23:57:25.664Z,2.67
2018-09-15T23:59:54.085Z,3.17
